sensor_id;sensor_type;location;lat;lon;timestamp;P1;durP1;ratioP1;P2;durP2;ratioP2
6973;SDS011;3527;52.376;8.990;2024-01-11T00:00:29;39.97;;;18.33;;
6973;SDS011;3527;52.376;8.990;2024-01-11T00:02:56;36.60;;;18.17;;
6973;SDS011;3527;52.376;8.990;2024-01-11T00:05:23;39.27;;;18.87;;
6973;SDS011;3527;52.376;8.990;2024-01-11T00:07:50;36.50;;;17.77;;
6973;SDS011;3527;52.376;8.990;2024-01-11T00:10:17;38.23;;;18.53;;
6973;SDS011;3527;52.376;8.990;2024-01-11T00:12:43;34.63;;;16.60;;
6973;SDS011;3527;52.376;8.990;2024-01-11T00:15:10;41.83;;;17.67;;
6973;SDS011;3527;52.376;8.990;2024-01-11T00:17:37;36.73;;;17.60;;
6973;SDS011;3527;52.376;8.990;2024-01-11T00:20:05;40.20;;;18.50;;
6973;SDS011;3527;52.376;8.990;2024-01-11T00:22:31;37.27;;;17.47;;
6973;SDS011;3527;52.376;8.990;2024-01-11T00:24:58;34.23;;;16.53;;
6973;SDS011;3527;52.376;8.990;2024-01-11T00:27:25;40.67;;;18.23;;
6973;SDS011;3527;52.376;8.990;2024-01-11T00:29:52;37.40;;;17.83;;
6973;SDS011;3527;52.376;8.990;2024-01-11T00:32:19;39.53;;;18.07;;
6973;SDS011;3527;52.376;8.990;2024-01-11T00:34:47;34.30;;;18.33;;
6973;SDS011;3527;52.376;8.990;2024-01-11T00:37:14;41.37;;;18.80;;
6973;SDS011;3527;52.376;8.990;2024-01-11T00:39:41;37.23;;;17.87;;
6973;SDS011;3527;52.376;8.990;2024-01-11T00:42:07;40.33;;;19.03;;
6973;SDS011;3527;52.376;8.990;2024-01-11T00:44:34;39.93;;;17.93;;
6973;SDS011;3527;52.376;8.990;2024-01-11T00:47:01;36.47;;;18.53;;
6973;SDS011;3527;52.376;8.990;2024-01-11T00:49:27;40.07;;;18.33;;
6973;SDS011;3527;52.376;8.990;2024-01-11T00:51:54;36.97;;;18.70;;
6973;SDS011;3527;52.376;8.990;2024-01-11T00:54:21;39.37;;;17.77;;
6973;SDS011;3527;52.376;8.990;2024-01-11T00:56:47;37.97;;;17.50;;
6973;SDS011;3527;52.376;8.990;2024-01-11T00:59:14;40.63;;;18.17;;
6973;SDS011;3527;52.376;8.990;2024-01-11T01:01:46;34.37;;;16.60;;
6973;SDS011;3527;52.376;8.990;2024-01-11T01:04:12;37.00;;;16.93;;
6973;SDS011;3527;52.376;8.990;2024-01-11T01:06:40;32.60;;;16.57;;
6973;SDS011;3527;52.376;8.990;2024-01-11T01:09:07;34.73;;;16.37;;
6973;SDS011;3527;52.376;8.990;2024-01-11T01:11:37;34.97;;;17.17;;
6973;SDS011;3527;52.376;8.990;2024-01-11T01:14:04;36.93;;;16.70;;
6973;SDS011;3527;52.376;8.990;2024-01-11T01:16:31;34.43;;;15.57;;
6973;SDS011;3527;52.376;8.990;2024-01-11T01:18:58;31.43;;;15.77;;
6973;SDS011;3527;52.376;8.990;2024-01-11T01:21:25;34.00;;;15.50;;
6973;SDS011;3527;52.376;8.990;2024-01-11T01:23:51;31.10;;;15.70;;
6973;SDS011;3527;52.376;8.990;2024-01-11T01:26:18;31.97;;;16.30;;
6973;SDS011;3527;52.376;8.990;2024-01-11T01:28:45;35.73;;;16.20;;
6973;SDS011;3527;52.376;8.990;2024-01-11T01:31:11;32.23;;;15.37;;
6973;SDS011;3527;52.376;8.990;2024-01-11T01:33:39;34.63;;;15.27;;
6973;SDS011;3527;52.376;8.990;2024-01-11T01:36:12;30.60;;;15.33;;
6973;SDS011;3527;52.376;8.990;2024-01-11T01:38:39;33.70;;;15.40;;
6973;SDS011;3527;52.376;8.990;2024-01-11T01:41:06;32.63;;;14.67;;
6973;SDS011;3527;52.376;8.990;2024-01-11T01:43:32;32.80;;;15.17;;
6973;SDS011;3527;52.376;8.990;2024-01-11T01:45:59;31.87;;;16.00;;
6973;SDS011;3527;52.376;8.990;2024-01-11T01:48:26;32.13;;;16.03;;
6973;SDS011;3527;52.376;8.990;2024-01-11T01:50:54;29.53;;;14.73;;
6973;SDS011;3527;52.376;8.990;2024-01-11T01:53:21;31.97;;;14.67;;
6973;SDS011;3527;52.376;8.990;2024-01-11T01:55:49;32.73;;;14.47;;
6973;SDS011;3527;52.376;8.990;2024-01-11T01:58:17;33.73;;;14.33;;
6973;SDS011;3527;52.376;8.990;2024-01-11T02:00:44;30.23;;;13.90;;
6973;SDS011;3527;52.376;8.990;2024-01-11T02:03:12;28.00;;;14.47;;
6973;SDS011;3527;52.376;8.990;2024-01-11T02:05:40;27.40;;;13.83;;
6973;SDS011;3527;52.376;8.990;2024-01-11T02:08:07;29.70;;;14.40;;
6973;SDS011;3527;52.376;8.990;2024-01-11T02:10:35;30.20;;;15.13;;
6973;SDS011;3527;52.376;8.990;2024-01-11T02:13:04;30.13;;;15.67;;
6973;SDS011;3527;52.376;8.990;2024-01-11T02:15:36;29.57;;;14.30;;
6973;SDS011;3527;52.376;8.990;2024-01-11T02:18:03;28.87;;;15.13;;
6973;SDS011;3527;52.376;8.990;2024-01-11T02:20:30;28.97;;;14.00;;
6973;SDS011;3527;52.376;8.990;2024-01-11T02:22:58;30.47;;;14.80;;
6973;SDS011;3527;52.376;8.990;2024-01-11T02:25:27;29.10;;;14.50;;
6973;SDS011;3527;52.376;8.990;2024-01-11T02:27:54;33.27;;;15.27;;
6973;SDS011;3527;52.376;8.990;2024-01-11T02:30:20;31.97;;;13.53;;
6973;SDS011;3527;52.376;8.990;2024-01-11T02:32:48;32.47;;;15.23;;
6973;SDS011;3527;52.376;8.990;2024-01-11T02:35:15;33.20;;;15.23;;
6973;SDS011;3527;52.376;8.990;2024-01-11T02:37:42;36.03;;;15.83;;
6973;SDS011;3527;52.376;8.990;2024-01-11T02:40:10;29.80;;;14.37;;
6973;SDS011;3527;52.376;8.990;2024-01-11T02:42:37;33.60;;;14.83;;
6973;SDS011;3527;52.376;8.990;2024-01-11T02:45:04;30.77;;;15.30;;
6973;SDS011;3527;52.376;8.990;2024-01-11T02:47:30;27.10;;;13.97;;
6973;SDS011;3527;52.376;8.990;2024-01-11T02:49:58;30.23;;;14.10;;
6973;SDS011;3527;52.376;8.990;2024-01-11T02:52:25;26.80;;;13.87;;
6973;SDS011;3527;52.376;8.990;2024-01-11T02:54:51;28.20;;;14.33;;
6973;SDS011;3527;52.376;8.990;2024-01-11T02:57:18;31.60;;;14.97;;
6973;SDS011;3527;52.376;8.990;2024-01-11T02:59:45;25.97;;;13.77;;
6973;SDS011;3527;52.376;8.990;2024-01-11T03:02:11;31.10;;;13.83;;
6973;SDS011;3527;52.376;8.990;2024-01-11T03:04:38;27.53;;;13.10;;
6973;SDS011;3527;52.376;8.990;2024-01-11T03:07:05;28.97;;;14.40;;
6973;SDS011;3527;52.376;8.990;2024-01-11T03:09:31;31.00;;;15.60;;
6973;SDS011;3527;52.376;8.990;2024-01-11T03:11:58;30.77;;;14.47;;
6973;SDS011;3527;52.376;8.990;2024-01-11T03:14:25;29.60;;;14.47;;
6973;SDS011;3527;52.376;8.990;2024-01-11T03:16:54;26.73;;;14.10;;
6973;SDS011;3527;52.376;8.990;2024-01-11T03:19:21;33.90;;;15.57;;
6973;SDS011;3527;52.376;8.990;2024-01-11T03:21:48;30.10;;;15.37;;
6973;SDS011;3527;52.376;8.990;2024-01-11T03:24:14;30.57;;;14.53;;
6973;SDS011;3527;52.376;8.990;2024-01-11T03:26:41;30.83;;;14.37;;
6973;SDS011;3527;52.376;8.990;2024-01-11T03:29:08;31.07;;;14.63;;
6973;SDS011;3527;52.376;8.990;2024-01-11T03:31:35;30.73;;;14.90;;
6973;SDS011;3527;52.376;8.990;2024-01-11T03:34:01;31.47;;;15.23;;
6973;SDS011;3527;52.376;8.990;2024-01-11T03:36:28;29.13;;;14.53;;
6973;SDS011;3527;52.376;8.990;2024-01-11T03:38:55;33.80;;;14.60;;
6973;SDS011;3527;52.376;8.990;2024-01-11T03:41:22;31.47;;;14.43;;
6973;SDS011;3527;52.376;8.990;2024-01-11T03:43:49;31.37;;;15.37;;
6973;SDS011;3527;52.376;8.990;2024-01-11T03:46:16;31.13;;;13.67;;
6973;SDS011;3527;52.376;8.990;2024-01-11T03:48:43;29.30;;;14.97;;
6973;SDS011;3527;52.376;8.990;2024-01-11T03:51:10;27.27;;;14.57;;
6973;SDS011;3527;52.376;8.990;2024-01-11T03:53:36;28.30;;;14.53;;
6973;SDS011;3527;52.376;8.990;2024-01-11T03:56:04;30.37;;;15.00;;
6973;SDS011;3527;52.376;8.990;2024-01-11T03:58:31;29.00;;;16.00;;
6973;SDS011;3527;52.376;8.990;2024-01-11T04:00:59;29.47;;;14.23;;
6973;SDS011;3527;52.376;8.990;2024-01-11T04:03:26;29.47;;;14.97;;
6973;SDS011;3527;52.376;8.990;2024-01-11T04:05:53;25.97;;;13.60;;
6973;SDS011;3527;52.376;8.990;2024-01-11T04:08:20;27.13;;;13.93;;
6973;SDS011;3527;52.376;8.990;2024-01-11T04:10:46;27.97;;;14.30;;
6973;SDS011;3527;52.376;8.990;2024-01-11T04:13:13;30.00;;;15.20;;
6973;SDS011;3527;52.376;8.990;2024-01-11T04:15:40;33.83;;;14.77;;
6973;SDS011;3527;52.376;8.990;2024-01-11T04:18:06;28.60;;;14.67;;
6973;SDS011;3527;52.376;8.990;2024-01-11T04:20:33;34.43;;;15.20;;
6973;SDS011;3527;52.376;8.990;2024-01-11T04:23:00;31.97;;;15.03;;
6973;SDS011;3527;52.376;8.990;2024-01-11T04:25:27;32.33;;;13.93;;
6973;SDS011;3527;52.376;8.990;2024-01-11T04:27:53;28.80;;;14.03;;
6973;SDS011;3527;52.376;8.990;2024-01-11T04:30:20;33.03;;;14.93;;
6973;SDS011;3527;52.376;8.990;2024-01-11T04:32:47;33.30;;;16.03;;
6973;SDS011;3527;52.376;8.990;2024-01-11T04:35:14;34.80;;;16.50;;
6973;SDS011;3527;52.376;8.990;2024-01-11T04:37:40;30.33;;;15.20;;
6973;SDS011;3527;52.376;8.990;2024-01-11T04:40:07;33.40;;;15.50;;
6973;SDS011;3527;52.376;8.990;2024-01-11T04:42:34;29.77;;;13.57;;
6973;SDS011;3527;52.376;8.990;2024-01-11T04:45:00;33.80;;;16.13;;
6973;SDS011;3527;52.376;8.990;2024-01-11T04:47:30;35.17;;;15.47;;
6973;SDS011;3527;52.376;8.990;2024-01-11T04:49:56;36.23;;;16.87;;
6973;SDS011;3527;52.376;8.990;2024-01-11T04:52:23;36.70;;;16.60;;
6973;SDS011;3527;52.376;8.990;2024-01-11T04:54:50;38.07;;;17.13;;
6973;SDS011;3527;52.376;8.990;2024-01-11T04:57:16;33.53;;;15.67;;
6973;SDS011;3527;52.376;8.990;2024-01-11T04:59:43;35.70;;;15.30;;
6973;SDS011;3527;52.376;8.990;2024-01-11T05:02:10;38.63;;;16.83;;
6973;SDS011;3527;52.376;8.990;2024-01-11T05:04:36;36.20;;;17.10;;
6973;SDS011;3527;52.376;8.990;2024-01-11T05:07:03;37.07;;;16.40;;
6973;SDS011;3527;52.376;8.990;2024-01-11T05:09:30;33.07;;;15.63;;
6973;SDS011;3527;52.376;8.990;2024-01-11T05:11:56;36.67;;;16.33;;
6973;SDS011;3527;52.376;8.990;2024-01-11T05:14:23;34.50;;;16.30;;
6973;SDS011;3527;52.376;8.990;2024-01-11T05:16:50;37.57;;;17.37;;
6973;SDS011;3527;52.376;8.990;2024-01-11T05:19:16;31.13;;;15.97;;
6973;SDS011;3527;52.376;8.990;2024-01-11T05:21:43;36.53;;;16.30;;
6973;SDS011;3527;52.376;8.990;2024-01-11T05:24:10;33.63;;;16.40;;
6973;SDS011;3527;52.376;8.990;2024-01-11T05:26:37;37.50;;;17.03;;
6973;SDS011;3527;52.376;8.990;2024-01-11T05:29:04;39.93;;;16.93;;
6973;SDS011;3527;52.376;8.990;2024-01-11T05:31:31;36.07;;;17.67;;
6973;SDS011;3527;52.376;8.990;2024-01-11T05:33:58;35.60;;;17.00;;
6973;SDS011;3527;52.376;8.990;2024-01-11T05:36:26;32.43;;;16.30;;
6973;SDS011;3527;52.376;8.990;2024-01-11T05:38:52;34.57;;;15.47;;
6973;SDS011;3527;52.376;8.990;2024-01-11T05:41:19;33.37;;;15.73;;
6973;SDS011;3527;52.376;8.990;2024-01-11T05:43:46;35.00;;;15.90;;
6973;SDS011;3527;52.376;8.990;2024-01-11T05:46:12;35.07;;;17.30;;
6973;SDS011;3527;52.376;8.990;2024-01-11T05:48:39;33.20;;;14.97;;
6973;SDS011;3527;52.376;8.990;2024-01-11T05:51:06;34.70;;;15.80;;
6973;SDS011;3527;52.376;8.990;2024-01-11T05:53:34;38.20;;;15.97;;
6973;SDS011;3527;52.376;8.990;2024-01-11T05:56:06;36.43;;;17.47;;
6973;SDS011;3527;52.376;8.990;2024-01-11T05:58:33;35.27;;;15.37;;
6973;SDS011;3527;52.376;8.990;2024-01-11T06:01:00;36.03;;;16.67;;
6973;SDS011;3527;52.376;8.990;2024-01-11T06:03:26;33.50;;;16.07;;
6973;SDS011;3527;52.376;8.990;2024-01-11T06:05:54;34.40;;;15.50;;
6973;SDS011;3527;52.376;8.990;2024-01-11T06:08:21;35.67;;;15.57;;
6973;SDS011;3527;52.376;8.990;2024-01-11T06:10:48;37.03;;;15.97;;
6973;SDS011;3527;52.376;8.990;2024-01-11T06:13:14;33.07;;;15.40;;
6973;SDS011;3527;52.376;8.990;2024-01-11T06:15:41;33.30;;;14.87;;
6973;SDS011;3527;52.376;8.990;2024-01-11T06:18:09;37.97;;;18.13;;
6973;SDS011;3527;52.376;8.990;2024-01-11T06:20:35;31.73;;;16.03;;
6973;SDS011;3527;52.376;8.990;2024-01-11T06:23:02;36.53;;;17.47;;
6973;SDS011;3527;52.376;8.990;2024-01-11T06:25:29;37.17;;;16.53;;
6973;SDS011;3527;52.376;8.990;2024-01-11T06:27:56;39.90;;;17.30;;
6973;SDS011;3527;52.376;8.990;2024-01-11T06:30:23;39.40;;;16.97;;
6973;SDS011;3527;52.376;8.990;2024-01-11T06:32:49;35.20;;;17.83;;
6973;SDS011;3527;52.376;8.990;2024-01-11T06:35:16;40.57;;;17.20;;
6973;SDS011;3527;52.376;8.990;2024-01-11T06:37:43;42.23;;;17.80;;
6973;SDS011;3527;52.376;8.990;2024-01-11T06:40:10;43.93;;;18.10;;
6973;SDS011;3527;52.376;8.990;2024-01-11T06:42:37;41.27;;;16.47;;
6973;SDS011;3527;52.376;8.990;2024-01-11T06:45:03;42.00;;;18.33;;
6973;SDS011;3527;52.376;8.990;2024-01-11T06:47:30;36.40;;;17.00;;
6973;SDS011;3527;52.376;8.990;2024-01-11T06:49:57;38.70;;;16.47;;
6973;SDS011;3527;52.376;8.990;2024-01-11T06:52:24;34.83;;;16.53;;
6973;SDS011;3527;52.376;8.990;2024-01-11T06:54:51;38.87;;;17.47;;
6973;SDS011;3527;52.376;8.990;2024-01-11T06:57:18;32.57;;;16.77;;
6973;SDS011;3527;52.376;8.990;2024-01-11T06:59:44;34.43;;;16.43;;
6973;SDS011;3527;52.376;8.990;2024-01-11T07:02:13;37.53;;;17.03;;
6973;SDS011;3527;52.376;8.990;2024-01-11T07:04:43;39.17;;;16.77;;
6973;SDS011;3527;52.376;8.990;2024-01-11T07:07:10;41.17;;;16.40;;
6973;SDS011;3527;52.376;8.990;2024-01-11T07:09:36;33.70;;;15.13;;
6973;SDS011;3527;52.376;8.990;2024-01-11T07:12:03;34.50;;;16.17;;
6973;SDS011;3527;52.376;8.990;2024-01-11T07:14:30;36.47;;;15.53;;
6973;SDS011;3527;52.376;8.990;2024-01-11T07:16:57;31.10;;;14.73;;
6973;SDS011;3527;52.376;8.990;2024-01-11T07:19:23;36.43;;;16.33;;
6973;SDS011;3527;52.376;8.990;2024-01-11T07:21:50;36.67;;;16.93;;
6973;SDS011;3527;52.376;8.990;2024-01-11T07:24:17;37.10;;;17.40;;
6973;SDS011;3527;52.376;8.990;2024-01-11T07:26:45;35.63;;;17.10;;
6973;SDS011;3527;52.376;8.990;2024-01-11T07:29:11;36.30;;;15.63;;
6973;SDS011;3527;52.376;8.990;2024-01-11T07:31:38;36.77;;;15.93;;
6973;SDS011;3527;52.376;8.990;2024-01-11T07:34:05;41.70;;;17.17;;
6973;SDS011;3527;52.376;8.990;2024-01-11T07:36:31;32.33;;;16.17;;
6973;SDS011;3527;52.376;8.990;2024-01-11T07:38:58;41.57;;;19.07;;
6973;SDS011;3527;52.376;8.990;2024-01-11T07:41:25;36.87;;;15.97;;
6973;SDS011;3527;52.376;8.990;2024-01-11T07:43:51;38.60;;;18.03;;
6973;SDS011;3527;52.376;8.990;2024-01-11T07:46:20;41.17;;;16.70;;
6973;SDS011;3527;52.376;8.990;2024-01-11T07:49:02;38.70;;;16.97;;
6973;SDS011;3527;52.376;8.990;2024-01-11T07:51:29;41.63;;;16.83;;
6973;SDS011;3527;52.376;8.990;2024-01-11T07:53:56;40.83;;;18.90;;
6973;SDS011;3527;52.376;8.990;2024-01-11T07:56:23;37.10;;;16.53;;
6973;SDS011;3527;52.376;8.990;2024-01-11T07:58:49;40.10;;;16.70;;
6973;SDS011;3527;52.376;8.990;2024-01-11T08:01:16;37.97;;;17.60;;
6973;SDS011;3527;52.376;8.990;2024-01-11T08:03:43;37.10;;;16.20;;
6973;SDS011;3527;52.376;8.990;2024-01-11T08:06:14;47.23;;;18.40;;
6973;SDS011;3527;52.376;8.990;2024-01-11T08:08:41;35.73;;;17.00;;
6973;SDS011;3527;52.376;8.990;2024-01-11T08:11:08;37.23;;;18.20;;
6973;SDS011;3527;52.376;8.990;2024-01-11T08:13:35;40.60;;;19.17;;
6973;SDS011;3527;52.376;8.990;2024-01-11T08:16:02;46.53;;;21.17;;
6973;SDS011;3527;52.376;8.990;2024-01-11T08:18:36;39.10;;;18.47;;
6973;SDS011;3527;52.376;8.990;2024-01-11T08:21:03;37.83;;;19.57;;
6973;SDS011;3527;52.376;8.990;2024-01-11T08:23:37;40.30;;;18.67;;
6973;SDS011;3527;52.376;8.990;2024-01-11T08:26:06;39.87;;;18.30;;
6973;SDS011;3527;52.376;8.990;2024-01-11T08:28:32;49.33;;;19.23;;
6973;SDS011;3527;52.376;8.990;2024-01-11T08:30:59;39.47;;;19.43;;
6973;SDS011;3527;52.376;8.990;2024-01-11T08:33:26;39.27;;;17.33;;
6973;SDS011;3527;52.376;8.990;2024-01-11T08:35:53;43.23;;;19.77;;
6973;SDS011;3527;52.376;8.990;2024-01-11T08:38:20;40.27;;;19.97;;
6973;SDS011;3527;52.376;8.990;2024-01-11T08:40:47;41.97;;;19.87;;
6973;SDS011;3527;52.376;8.990;2024-01-11T08:43:14;42.17;;;20.30;;
6973;SDS011;3527;52.376;8.990;2024-01-11T08:45:41;46.07;;;20.40;;
6973;SDS011;3527;52.376;8.990;2024-01-11T08:48:10;49.40;;;19.83;;
6973;SDS011;3527;52.376;8.990;2024-01-11T08:50:37;45.57;;;21.27;;
6973;SDS011;3527;52.376;8.990;2024-01-11T08:53:04;51.43;;;21.90;;
6973;SDS011;3527;52.376;8.990;2024-01-11T08:55:31;48.17;;;20.67;;
6973;SDS011;3527;52.376;8.990;2024-01-11T08:57:57;46.13;;;21.47;;
6973;SDS011;3527;52.376;8.990;2024-01-11T09:00:24;44.43;;;19.73;;
6973;SDS011;3527;52.376;8.990;2024-01-11T09:02:51;47.10;;;20.67;;
6973;SDS011;3527;52.376;8.990;2024-01-11T09:05:17;41.83;;;20.00;;
6973;SDS011;3527;52.376;8.990;2024-01-11T09:07:44;50.90;;;22.03;;
6973;SDS011;3527;52.376;8.990;2024-01-11T09:10:12;49.13;;;22.47;;
6973;SDS011;3527;52.376;8.990;2024-01-11T09:12:39;48.70;;;21.60;;
6973;SDS011;3527;52.376;8.990;2024-01-11T09:15:05;46.20;;;21.93;;
6973;SDS011;3527;52.376;8.990;2024-01-11T09:17:33;48.77;;;21.93;;
6973;SDS011;3527;52.376;8.990;2024-01-11T09:20:00;49.50;;;21.07;;
6973;SDS011;3527;52.376;8.990;2024-01-11T09:22:27;44.70;;;20.27;;
6973;SDS011;3527;52.376;8.990;2024-01-11T09:24:54;43.10;;;20.33;;
6973;SDS011;3527;52.376;8.990;2024-01-11T09:27:21;39.50;;;19.90;;
6973;SDS011;3527;52.376;8.990;2024-01-11T09:29:49;43.73;;;20.43;;
6973;SDS011;3527;52.376;8.990;2024-01-11T09:32:20;46.80;;;22.07;;
6973;SDS011;3527;52.376;8.990;2024-01-11T09:34:47;41.03;;;22.17;;
6973;SDS011;3527;52.376;8.990;2024-01-11T09:37:14;49.03;;;21.40;;
6973;SDS011;3527;52.376;8.990;2024-01-11T09:39:41;44.27;;;20.53;;
6973;SDS011;3527;52.376;8.990;2024-01-11T09:42:09;44.63;;;21.70;;
6973;SDS011;3527;52.376;8.990;2024-01-11T09:44:37;46.57;;;21.23;;
6973;SDS011;3527;52.376;8.990;2024-01-11T09:47:08;48.77;;;20.47;;
6973;SDS011;3527;52.376;8.990;2024-01-11T09:49:38;40.47;;;21.50;;
6973;SDS011;3527;52.376;8.990;2024-01-11T09:52:05;46.20;;;21.40;;
6973;SDS011;3527;52.376;8.990;2024-01-11T09:54:32;46.03;;;21.23;;
6973;SDS011;3527;52.376;8.990;2024-01-11T09:56:59;46.07;;;21.33;;
6973;SDS011;3527;52.376;8.990;2024-01-11T09:59:27;41.33;;;20.13;;
6973;SDS011;3527;52.376;8.990;2024-01-11T10:01:54;42.63;;;20.37;;
6973;SDS011;3527;52.376;8.990;2024-01-11T10:04:21;37.13;;;20.17;;
6973;SDS011;3527;52.376;8.990;2024-01-11T10:06:48;43.67;;;19.63;;
6973;SDS011;3527;52.376;8.990;2024-01-11T10:09:15;47.97;;;20.73;;
6973;SDS011;3527;52.376;8.990;2024-01-11T10:11:43;51.53;;;21.93;;
6973;SDS011;3527;52.376;8.990;2024-01-11T10:14:12;48.00;;;22.43;;
6973;SDS011;3527;52.376;8.990;2024-01-11T10:16:39;48.60;;;21.97;;
6973;SDS011;3527;52.376;8.990;2024-01-11T10:19:07;47.50;;;20.07;;
6973;SDS011;3527;52.376;8.990;2024-01-11T10:21:37;46.63;;;22.67;;
6973;SDS011;3527;52.376;8.990;2024-01-11T10:24:04;46.67;;;22.37;;
6973;SDS011;3527;52.376;8.990;2024-01-11T10:26:30;43.23;;;20.97;;
6973;SDS011;3527;52.376;8.990;2024-01-11T10:29:02;46.87;;;22.30;;
6973;SDS011;3527;52.376;8.990;2024-01-11T10:31:29;51.50;;;21.63;;
6973;SDS011;3527;52.376;8.990;2024-01-11T10:33:57;47.07;;;22.27;;
6973;SDS011;3527;52.376;8.990;2024-01-11T10:36:23;44.57;;;20.67;;
6973;SDS011;3527;52.376;8.990;2024-01-11T10:38:52;50.57;;;22.47;;
6973;SDS011;3527;52.376;8.990;2024-01-11T10:41:19;46.73;;;21.93;;
6973;SDS011;3527;52.376;8.990;2024-01-11T10:43:46;50.30;;;22.57;;
6973;SDS011;3527;52.376;8.990;2024-01-11T10:46:15;50.00;;;22.63;;
6973;SDS011;3527;52.376;8.990;2024-01-11T10:48:43;49.23;;;23.03;;
6973;SDS011;3527;52.376;8.990;2024-01-11T10:51:12;46.10;;;21.87;;
6973;SDS011;3527;52.376;8.990;2024-01-11T10:53:48;47.50;;;22.67;;
6973;SDS011;3527;52.376;8.990;2024-01-11T10:56:17;52.67;;;23.70;;
6973;SDS011;3527;52.376;8.990;2024-01-11T10:58:44;46.13;;;24.47;;
6973;SDS011;3527;52.376;8.990;2024-01-11T11:01:12;52.40;;;23.10;;
6973;SDS011;3527;52.376;8.990;2024-01-11T11:03:40;56.43;;;25.40;;
6973;SDS011;3527;52.376;8.990;2024-01-11T11:06:10;62.20;;;25.37;;
6973;SDS011;3527;52.376;8.990;2024-01-11T11:08:37;48.77;;;24.50;;
6973;SDS011;3527;52.376;8.990;2024-01-11T11:11:04;49.63;;;22.63;;
6973;SDS011;3527;52.376;8.990;2024-01-11T11:13:32;52.80;;;24.20;;
6973;SDS011;3527;52.376;8.990;2024-01-11T11:16:01;49.03;;;23.57;;
6973;SDS011;3527;52.376;8.990;2024-01-11T11:18:31;51.03;;;22.73;;
6973;SDS011;3527;52.376;8.990;2024-01-11T11:20:58;51.27;;;23.57;;
6973;SDS011;3527;52.376;8.990;2024-01-11T11:23:24;55.53;;;24.30;;
6973;SDS011;3527;52.376;8.990;2024-01-11T11:25:53;41.20;;;21.37;;
6973;SDS011;3527;52.376;8.990;2024-01-11T11:28:20;43.77;;;22.67;;
6973;SDS011;3527;52.376;8.990;2024-01-11T11:30:48;44.53;;;21.10;;
6973;SDS011;3527;52.376;8.990;2024-01-11T11:33:18;49.97;;;21.20;;
6973;SDS011;3527;52.376;8.990;2024-01-11T11:35:46;48.47;;;21.57;;
6973;SDS011;3527;52.376;8.990;2024-01-11T11:38:17;45.93;;;21.40;;
6973;SDS011;3527;52.376;8.990;2024-01-11T11:40:45;46.20;;;22.50;;
6973;SDS011;3527;52.376;8.990;2024-01-11T11:43:12;46.27;;;21.33;;
6973;SDS011;3527;52.376;8.990;2024-01-11T11:45:40;52.60;;;22.00;;
6973;SDS011;3527;52.376;8.990;2024-01-11T11:51:06;41.17;;;19.23;;
6973;SDS011;3527;52.376;8.990;2024-01-11T11:53:33;40.87;;;19.60;;
6973;SDS011;3527;52.376;8.990;2024-01-11T11:56:01;40.47;;;18.67;;
6973;SDS011;3527;52.376;8.990;2024-01-11T11:58:29;40.63;;;18.93;;
6973;SDS011;3527;52.376;8.990;2024-01-11T12:00:55;43.47;;;19.27;;
6973;SDS011;3527;52.376;8.990;2024-01-11T12:03:30;38.03;;;18.03;;
6973;SDS011;3527;52.376;8.990;2024-01-11T12:05:58;37.60;;;19.00;;
6973;SDS011;3527;52.376;8.990;2024-01-11T12:08:25;39.50;;;18.83;;
6973;SDS011;3527;52.376;8.990;2024-01-11T12:10:52;40.00;;;18.17;;
6973;SDS011;3527;52.376;8.990;2024-01-11T12:13:19;37.63;;;18.40;;
6973;SDS011;3527;52.376;8.990;2024-01-11T12:15:46;36.03;;;18.57;;
6973;SDS011;3527;52.376;8.990;2024-01-11T12:18:13;36.47;;;18.63;;
6973;SDS011;3527;52.376;8.990;2024-01-11T12:20:40;37.13;;;17.70;;
6973;SDS011;3527;52.376;8.990;2024-01-11T12:23:07;40.90;;;19.13;;
6973;SDS011;3527;52.376;8.990;2024-01-11T12:25:34;40.97;;;17.90;;
6973;SDS011;3527;52.376;8.990;2024-01-11T12:28:01;42.10;;;19.07;;
6973;SDS011;3527;52.376;8.990;2024-01-11T12:30:28;33.83;;;16.67;;
6973;SDS011;3527;52.376;8.990;2024-01-11T12:32:56;45.17;;;19.60;;
6973;SDS011;3527;52.376;8.990;2024-01-11T12:35:24;42.83;;;20.20;;
6973;SDS011;3527;52.376;8.990;2024-01-11T12:37:54;39.90;;;18.17;;
6973;SDS011;3527;52.376;8.990;2024-01-11T12:40:21;44.23;;;19.50;;
6973;SDS011;3527;52.376;8.990;2024-01-11T12:42:48;39.87;;;18.00;;
6973;SDS011;3527;52.376;8.990;2024-01-11T12:45:16;36.40;;;18.47;;
6973;SDS011;3527;52.376;8.990;2024-01-11T12:47:43;39.33;;;19.50;;
6973;SDS011;3527;52.376;8.990;2024-01-11T12:50:11;38.07;;;17.87;;
6973;SDS011;3527;52.376;8.990;2024-01-11T12:52:39;38.60;;;18.37;;
6973;SDS011;3527;52.376;8.990;2024-01-11T12:55:17;41.17;;;18.90;;
6973;SDS011;3527;52.376;8.990;2024-01-11T12:57:45;38.83;;;18.97;;
6973;SDS011;3527;52.376;8.990;2024-01-11T13:00:12;43.70;;;19.30;;
6973;SDS011;3527;52.376;8.990;2024-01-11T13:02:39;47.60;;;21.53;;
6973;SDS011;3527;52.376;8.990;2024-01-11T13:05:06;42.60;;;18.90;;
6973;SDS011;3527;52.376;8.990;2024-01-11T13:07:36;43.70;;;20.47;;
6973;SDS011;3527;52.376;8.990;2024-01-11T13:10:03;43.53;;;20.43;;
6973;SDS011;3527;52.376;8.990;2024-01-11T13:12:30;39.37;;;18.57;;
6973;SDS011;3527;52.376;8.990;2024-01-11T13:14:57;43.37;;;18.43;;
6973;SDS011;3527;52.376;8.990;2024-01-11T13:17:24;42.20;;;18.27;;
6973;SDS011;3527;52.376;8.990;2024-01-11T13:19:51;38.77;;;18.40;;
6973;SDS011;3527;52.376;8.990;2024-01-11T13:22:18;35.77;;;17.83;;
6973;SDS011;3527;52.376;8.990;2024-01-11T13:24:44;42.07;;;18.17;;
6973;SDS011;3527;52.376;8.990;2024-01-11T13:27:11;43.27;;;18.40;;
6973;SDS011;3527;52.376;8.990;2024-01-11T13:29:38;38.47;;;17.00;;
6973;SDS011;3527;52.376;8.990;2024-01-11T13:32:05;44.67;;;20.13;;
6973;SDS011;3527;52.376;8.990;2024-01-11T13:34:32;42.00;;;18.40;;
6973;SDS011;3527;52.376;8.990;2024-01-11T13:36:59;40.53;;;18.77;;
6973;SDS011;3527;52.376;8.990;2024-01-11T13:39:26;37.63;;;18.80;;
6973;SDS011;3527;52.376;8.990;2024-01-11T13:41:53;38.50;;;18.30;;
6973;SDS011;3527;52.376;8.990;2024-01-11T13:44:22;43.73;;;18.47;;
6973;SDS011;3527;52.376;8.990;2024-01-11T13:46:50;42.03;;;17.93;;
6973;SDS011;3527;52.376;8.990;2024-01-11T13:49:17;47.83;;;21.27;;
6973;SDS011;3527;52.376;8.990;2024-01-11T13:51:44;44.10;;;19.87;;
6973;SDS011;3527;52.376;8.990;2024-01-11T13:54:25;42.10;;;19.23;;
6973;SDS011;3527;52.376;8.990;2024-01-11T13:56:52;37.97;;;18.60;;
6973;SDS011;3527;52.376;8.990;2024-01-11T13:59:19;39.67;;;18.40;;
6973;SDS011;3527;52.376;8.990;2024-01-11T14:01:46;37.47;;;17.87;;
6973;SDS011;3527;52.376;8.990;2024-01-11T14:04:13;38.80;;;18.23;;
6973;SDS011;3527;52.376;8.990;2024-01-11T14:06:42;42.13;;;18.83;;
6973;SDS011;3527;52.376;8.990;2024-01-11T14:09:09;38.93;;;17.83;;
6973;SDS011;3527;52.376;8.990;2024-01-11T14:11:36;35.07;;;16.93;;
6973;SDS011;3527;52.376;8.990;2024-01-11T14:14:04;35.83;;;17.37;;
6973;SDS011;3527;52.376;8.990;2024-01-11T14:16:31;35.73;;;16.87;;
6973;SDS011;3527;52.376;8.990;2024-01-11T14:18:58;36.03;;;17.37;;
6973;SDS011;3527;52.376;8.990;2024-01-11T14:21:26;35.93;;;17.03;;
6973;SDS011;3527;52.376;8.990;2024-01-11T14:23:53;38.53;;;18.63;;
6973;SDS011;3527;52.376;8.990;2024-01-11T14:26:20;33.13;;;16.53;;
6973;SDS011;3527;52.376;8.990;2024-01-11T14:28:47;34.97;;;16.10;;
6973;SDS011;3527;52.376;8.990;2024-01-11T14:31:13;35.63;;;17.30;;
6973;SDS011;3527;52.376;8.990;2024-01-11T14:33:40;33.47;;;15.63;;
6973;SDS011;3527;52.376;8.990;2024-01-11T14:36:07;32.47;;;15.50;;
6973;SDS011;3527;52.376;8.990;2024-01-11T14:38:34;34.00;;;15.30;;
6973;SDS011;3527;52.376;8.990;2024-01-11T14:41:00;31.73;;;15.60;;
6973;SDS011;3527;52.376;8.990;2024-01-11T14:43:27;30.07;;;15.10;;
6973;SDS011;3527;52.376;8.990;2024-01-11T14:45:54;32.10;;;14.90;;
6973;SDS011;3527;52.376;8.990;2024-01-11T14:48:21;35.27;;;16.37;;
6973;SDS011;3527;52.376;8.990;2024-01-11T14:50:50;31.73;;;15.50;;